createdAt,value
2023-04-17T00:00:52.375Z,20.67
2023-04-17T00:03:20.574Z,20.33
2023-04-17T00:05:48.869Z,21.17
2023-04-17T00:08:16.727Z,20.80
2023-04-17T00:10:48.837Z,20.50
2023-04-17T00:13:21.696Z,19.53
2023-04-17T00:15:50.815Z,19.33
2023-04-17T00:18:18.556Z,19.73
2023-04-17T00:20:46.272Z,19.87
2023-04-17T00:23:14.016Z,18.97
2023-04-17T00:25:41.733Z,18.37
2023-04-17T00:28:09.516Z,18.77
2023-04-17T00:30:37.292Z,19.63
2023-04-17T00:33:06.612Z,19.40
2023-04-17T00:35:34.380Z,19.07
2023-04-17T00:38:02.344Z,20.20
2023-04-17T00:40:30.125Z,19.87
2023-04-17T00:43:01.376Z,19.37
2023-04-17T00:45:29.377Z,19.60
2023-04-17T00:47:59.625Z,18.93
2023-04-17T00:50:29.676Z,18.63
2023-04-17T00:52:57.900Z,18.23
2023-04-17T00:55:26.569Z,18.80
2023-04-17T00:57:54.701Z,18.23
2023-04-17T01:00:22.516Z,18.60
2023-04-17T01:02:50.410Z,18.30
2023-04-17T01:05:18.514Z,18.27
2023-04-17T01:07:47.826Z,17.80
2023-04-17T01:10:15.635Z,17.97
2023-04-17T01:12:46.721Z,17.90
2023-04-17T01:15:14.465Z,17.77
2023-04-17T01:17:42.236Z,17.57
2023-04-17T01:20:10.864Z,17.40
2023-04-17T01:22:38.718Z,17.10
2023-04-17T01:25:08.438Z,16.97
2023-04-17T01:27:36.194Z,18.43
2023-04-17T01:30:04.385Z,17.80
2023-04-17T01:32:32.147Z,17.57
2023-04-17T01:35:00.035Z,17.87
2023-04-17T01:37:28.288Z,17.53
2023-04-17T01:39:56.087Z,18.43
2023-04-17T01:42:25.218Z,17.07
2023-04-17T01:44:53.383Z,18.77
2023-04-17T01:47:21.177Z,18.40
2023-04-17T01:49:48.937Z,17.20
2023-04-17T01:52:16.691Z,17.67
2023-04-17T01:54:44.405Z,17.27
2023-04-17T01:57:12.151Z,17.97
2023-04-17T01:59:41.413Z,17.73
2023-04-17T02:02:09.315Z,17.37
2023-04-17T02:04:37.152Z,17.80
2023-04-17T02:07:04.965Z,17.17
2023-04-17T02:09:32.719Z,17.53
2023-04-17T02:12:01.008Z,17.57
2023-04-17T02:14:28.749Z,17.67
2023-04-17T02:16:58.265Z,16.37
2023-04-17T02:19:26.280Z,18.73
2023-04-17T02:21:54.011Z,17.50
2023-04-17T02:24:21.749Z,16.87
2023-04-17T02:26:49.663Z,18.63
2023-04-17T02:29:17.408Z,19.17
2023-04-17T02:31:45.180Z,17.93
2023-04-17T02:34:14.283Z,18.77
2023-04-17T02:36:42.160Z,19.10
2023-04-17T02:39:10.121Z,17.73
2023-04-17T02:41:38.049Z,17.80
2023-04-17T02:44:06.071Z,17.17
2023-04-17T02:46:33.888Z,17.50
2023-04-17T02:49:01.648Z,18.20
2023-04-17T02:51:30.947Z,18.00
2023-04-17T02:53:58.726Z,18.07
2023-04-17T02:56:26.493Z,19.07
2023-04-17T02:58:54.237Z,17.97
2023-04-17T03:01:22.166Z,17.93
2023-04-17T03:03:50.371Z,18.90
2023-04-17T03:06:18.338Z,19.30
2023-04-17T03:08:47.505Z,19.67
2023-04-17T03:11:15.315Z,19.43
2023-04-17T03:13:44.474Z,19.63
2023-04-17T03:16:12.257Z,19.97
2023-04-17T03:18:41.064Z,19.00
2023-04-17T03:21:09.020Z,20.13
2023-04-17T03:23:36.863Z,20.60
2023-04-17T03:26:06.092Z,19.87
2023-04-17T03:28:34.006Z,19.97
2023-04-17T03:31:01.741Z,19.73
2023-04-17T03:33:29.516Z,20.57
2023-04-17T03:35:57.256Z,19.27
2023-04-17T03:38:25.004Z,20.37
2023-04-17T03:40:52.787Z,19.53
2023-04-17T03:43:21.862Z,20.17
2023-04-17T03:45:49.708Z,20.77
2023-04-17T03:48:17.461Z,19.93
2023-04-17T03:50:45.396Z,19.83
2023-04-17T03:53:13.134Z,20.43
2023-04-17T03:55:40.954Z,19.13
2023-04-17T03:58:08.712Z,20.13
2023-04-17T04:00:38.566Z,18.17
2023-04-17T04:03:06.624Z,19.03
2023-04-17T04:05:34.544Z,18.20
2023-04-17T04:08:02.284Z,18.73
2023-04-17T04:10:30.055Z,19.60
2023-04-17T04:12:57.804Z,18.87
2023-04-17T04:15:25.568Z,17.73
2023-04-17T04:17:54.670Z,18.27
2023-04-17T04:20:23.074Z,18.50
2023-04-17T04:22:50.819Z,17.77
2023-04-17T04:25:18.645Z,19.00
2023-04-17T04:27:49.608Z,18.30
2023-04-17T04:30:17.691Z,20.77
2023-04-17T04:32:46.420Z,19.37
2023-04-17T04:35:16.739Z,18.23
2023-04-17T04:37:46.446Z,19.43
2023-04-17T04:40:14.927Z,19.07
2023-04-17T04:42:43.183Z,18.77
2023-04-17T04:45:11.661Z,19.60
2023-04-17T04:47:39.458Z,19.47
2023-04-17T04:50:08.436Z,19.40
2023-04-17T04:52:37.524Z,19.20
2023-04-17T04:55:06.218Z,18.77
2023-04-17T04:57:33.963Z,18.93
2023-04-17T05:00:01.770Z,19.43
2023-04-17T05:02:29.721Z,18.83
2023-04-17T05:04:57.677Z,18.47
2023-04-17T05:07:26.016Z,18.90
2023-04-17T05:09:55.118Z,19.30
2023-04-17T05:12:22.836Z,19.43
2023-04-17T05:14:50.747Z,19.20
2023-04-17T05:17:18.552Z,19.47
2023-04-17T05:19:46.721Z,20.10
2023-04-17T05:22:14.439Z,19.37
2023-04-17T05:24:42.375Z,19.97
2023-04-17T05:27:11.522Z,19.17
2023-04-17T05:29:39.360Z,19.83
2023-04-17T05:32:07.370Z,20.83
2023-04-17T05:34:35.288Z,21.40
2023-04-17T05:37:03.622Z,18.97
2023-04-17T05:39:31.382Z,19.67
2023-04-17T05:41:59.114Z,19.87
2023-04-17T05:44:28.194Z,19.60
2023-04-17T05:46:57.275Z,19.60
2023-04-17T05:49:25.034Z,19.33
2023-04-17T05:51:52.823Z,19.87
2023-04-17T05:54:20.740Z,19.93
2023-04-17T05:56:49.771Z,18.87
2023-04-17T05:59:17.615Z,19.63
2023-04-17T06:01:46.686Z,20.20
2023-04-17T06:04:14.778Z,21.37
2023-04-17T06:06:42.861Z,19.83
2023-04-17T06:09:11.459Z,19.43
2023-04-17T06:11:39.440Z,19.30
2023-04-17T06:14:07.220Z,18.77
2023-04-17T06:16:35.011Z,19.70
2023-04-17T06:19:04.170Z,19.47
2023-04-17T06:21:33.040Z,18.53
2023-04-17T06:24:00.820Z,18.73
2023-04-17T06:26:28.732Z,19.37
2023-04-17T06:28:56.496Z,20.13
2023-04-17T06:31:24.263Z,19.30
2023-04-17T06:33:52.007Z,19.53
2023-04-17T06:36:21.104Z,20.10
2023-04-17T06:38:49.025Z,20.03
2023-04-17T06:41:16.779Z,20.00
2023-04-17T06:43:44.544Z,20.73
2023-04-17T06:46:12.350Z,20.80
2023-04-17T06:48:40.138Z,19.90
2023-04-17T06:51:07.906Z,21.10
2023-04-17T06:53:36.998Z,21.53
2023-04-17T06:56:05.438Z,20.23
2023-04-17T06:58:33.272Z,20.73
2023-04-17T07:01:01.062Z,20.83
2023-04-17T07:03:28.979Z,20.47
2023-04-17T07:05:56.795Z,21.47
2023-04-17T07:08:24.683Z,21.60
2023-04-17T07:10:54.660Z,21.63
2023-04-17T07:13:22.410Z,20.27
2023-04-17T07:15:53.312Z,22.57
2023-04-17T07:18:21.613Z,21.53
2023-04-17T07:20:49.489Z,21.17
2023-04-17T07:23:17.253Z,20.57
2023-04-17T07:25:45.014Z,21.03
2023-04-17T07:28:14.367Z,20.43
2023-04-17T07:30:42.652Z,21.77
2023-04-17T07:33:10.658Z,20.03
2023-04-17T07:35:38.565Z,20.87
2023-04-17T07:38:06.396Z,22.03
2023-04-17T07:40:36.884Z,21.33
2023-04-17T07:43:04.841Z,22.80
2023-04-17T07:45:35.543Z,21.93
2023-04-17T07:48:03.425Z,22.77
2023-04-17T07:50:31.506Z,24.73
2023-04-17T07:52:59.425Z,22.73
2023-04-17T07:55:27.195Z,22.83
2023-04-17T07:57:54.975Z,23.07
2023-04-17T08:00:24.042Z,23.73
2023-04-17T08:02:53.408Z,23.60
2023-04-17T08:05:21.438Z,22.30
2023-04-17T08:07:49.150Z,21.43
2023-04-17T08:10:17.207Z,21.83
2023-04-17T08:12:44.931Z,21.80
2023-04-17T08:15:13.200Z,22.13
2023-04-17T08:17:41.335Z,22.90
2023-04-17T08:20:11.305Z,21.73
2023-04-17T08:22:44.156Z,21.63
2023-04-17T08:25:12.852Z,21.90
2023-04-17T08:27:42.464Z,20.70
2023-04-17T08:30:14.240Z,19.83
2023-04-17T08:32:45.754Z,21.67
2023-04-17T08:35:17.268Z,21.67
2023-04-17T08:37:46.840Z,22.60
2023-04-17T08:40:15.395Z,20.97
2023-04-17T08:42:43.819Z,23.37
2023-04-17T08:45:13.394Z,24.43
2023-04-17T08:47:43.292Z,22.63
2023-04-17T08:50:12.489Z,21.77
2023-04-17T08:52:43.330Z,21.83
2023-04-17T08:55:13.923Z,22.77
2023-04-17T08:58:00.906Z,21.40
2023-04-17T09:00:29.942Z,19.40
2023-04-17T09:02:59.989Z,19.07
2023-04-17T09:05:30.358Z,20.13
2023-04-17T09:08:13.329Z,20.20
2023-04-17T09:10:42.929Z,19.53
2023-04-17T09:13:12.207Z,20.00
2023-04-17T09:15:40.019Z,19.93
2023-04-17T09:18:22.400Z,18.63
2023-04-17T09:20:51.470Z,19.23
2023-04-17T09:23:22.722Z,17.83
2023-04-17T09:26:06.762Z,17.37
2023-04-17T09:28:35.562Z,17.43
2023-04-17T09:31:05.918Z,16.40
2023-04-17T09:33:33.718Z,16.17
2023-04-17T09:36:22.529Z,16.47
2023-04-17T09:38:52.218Z,16.23
2023-04-17T09:41:24.446Z,14.80
2023-04-17T09:43:54.814Z,15.60
2023-04-17T09:46:33.130Z,15.43
2023-04-17T09:49:02.975Z,17.20
2023-04-17T09:51:31.402Z,17.73
2023-04-17T09:54:05.387Z,17.53
2023-04-17T09:56:35.463Z,17.63
2023-04-17T09:59:05.162Z,18.13
2023-04-17T10:01:34.434Z,16.80
2023-04-17T10:04:03.387Z,16.27
2023-04-17T10:06:32.679Z,15.90
2023-04-17T10:09:02.698Z,15.40
2023-04-17T10:11:35.265Z,16.00
2023-04-17T10:14:10.542Z,16.87
2023-04-17T10:16:39.689Z,15.63
2023-04-17T10:19:30.971Z,17.00
2023-04-17T10:22:41.248Z,15.50
2023-04-17T10:25:24.181Z,15.67
2023-04-17T10:27:54.468Z,14.93
2023-04-17T10:30:24.046Z,14.93
2023-04-17T10:33:26.142Z,13.93
2023-04-17T10:35:54.550Z,13.73
2023-04-17T10:38:33.739Z,14.67
2023-04-17T10:41:09.379Z,13.77
2023-04-17T10:43:41.470Z,13.67
2023-04-17T10:46:11.549Z,14.53
2023-04-17T10:48:42.375Z,14.40
2023-04-17T10:51:42.612Z,14.30
2023-04-17T10:54:15.688Z,15.17
2023-04-17T10:56:48.310Z,14.37
2023-04-17T10:59:17.365Z,13.70
2023-04-17T11:02:00.924Z,15.70
2023-04-17T11:04:30.705Z,15.27
2023-04-17T11:06:59.399Z,15.60
2023-04-17T11:09:29.608Z,14.47
2023-04-17T11:12:02.773Z,14.27
2023-04-17T11:14:31.293Z,14.40
2023-04-17T11:16:59.212Z,14.23
2023-04-17T11:19:27.283Z,12.87
2023-04-17T11:21:58.578Z,14.87
2023-04-17T11:24:27.608Z,14.43
2023-04-17T11:26:56.702Z,14.70
2023-04-17T11:29:26.142Z,15.73
2023-04-17T11:31:55.360Z,16.20
2023-04-17T11:34:23.568Z,15.73
2023-04-17T11:36:52.183Z,16.67
2023-04-17T11:39:20.725Z,15.97
2023-04-17T11:41:49.487Z,15.80
2023-04-17T11:44:20.171Z,16.20
2023-04-17T11:46:52.216Z,16.87
2023-04-17T11:49:26.358Z,16.90
2023-04-17T11:51:54.288Z,17.97
2023-04-17T11:54:25.923Z,17.83
2023-04-17T11:57:00.033Z,16.47
2023-04-17T11:59:32.474Z,17.07
2023-04-17T12:02:02.219Z,17.00
2023-04-17T12:04:33.517Z,17.37
2023-04-17T12:07:01.804Z,17.33
2023-04-17T12:09:31.859Z,16.77
2023-04-17T12:12:00.231Z,17.20
2023-04-17T12:14:27.993Z,16.07
2023-04-17T12:16:55.746Z,18.50
2023-04-17T12:19:26.720Z,17.37
2023-04-17T12:21:55.147Z,16.63
2023-04-17T12:24:24.919Z,17.87
2023-04-17T12:26:53.549Z,16.53
2023-04-17T12:29:29.454Z,16.03
2023-04-17T12:32:04.613Z,17.27
2023-04-17T12:34:33.834Z,17.83
2023-04-17T12:37:01.825Z,17.27
2023-04-17T12:39:29.579Z,16.80
2023-04-17T12:41:57.314Z,16.97
2023-04-17T12:44:25.277Z,19.30
2023-04-17T12:46:53.170Z,17.73
2023-04-17T12:49:23.557Z,19.23
2023-04-17T12:51:52.988Z,20.17
2023-04-17T12:54:20.752Z,19.70
2023-04-17T12:56:48.541Z,20.17
2023-04-17T12:59:16.942Z,20.00
2023-04-17T13:01:44.708Z,18.50
2023-04-17T13:04:13.217Z,19.77
2023-04-17T13:06:41.482Z,20.40
2023-04-17T13:09:11.409Z,21.13
2023-04-17T13:11:39.393Z,20.20
2023-04-17T13:14:07.460Z,20.73
2023-04-17T13:16:35.386Z,21.30
2023-04-17T13:19:03.344Z,19.57
2023-04-17T13:21:31.079Z,20.80
2023-04-17T13:23:58.830Z,20.27
2023-04-17T13:26:27.923Z,19.87
2023-04-17T13:28:55.714Z,21.77
2023-04-17T13:31:24.573Z,19.77
2023-04-17T13:33:52.501Z,19.40
2023-04-17T13:36:20.404Z,21.47
2023-04-17T13:38:48.174Z,21.23
2023-04-17T13:41:15.942Z,20.40
2023-04-17T13:43:45.143Z,20.30
2023-04-17T13:46:16.320Z,21.07
2023-04-17T13:48:44.552Z,20.10
2023-04-17T13:51:12.451Z,20.43
2023-04-17T13:53:40.271Z,19.77
2023-04-17T13:56:08.200Z,19.27
2023-04-17T13:58:36.027Z,18.20
2023-04-17T14:01:05.124Z,17.90
2023-04-17T14:03:33.210Z,19.20
2023-04-17T14:06:01.166Z,16.53
2023-04-17T14:08:28.961Z,15.53
2023-04-17T14:10:56.773Z,15.77
2023-04-17T14:13:24.603Z,15.67
2023-04-17T14:15:53.794Z,16.67
2023-04-17T14:18:24.755Z,16.97
2023-04-17T14:20:53.993Z,17.13
2023-04-17T14:23:21.900Z,18.07
2023-04-17T14:25:49.852Z,18.90
2023-04-17T14:28:18.473Z,20.50
2023-04-17T14:30:46.366Z,20.70
2023-04-17T14:33:14.451Z,20.40
2023-04-17T14:35:43.556Z,22.43
2023-04-17T14:38:11.358Z,21.30
2023-04-17T14:40:39.133Z,21.77
2023-04-17T14:43:07.204Z,21.77
2023-04-17T14:45:36.688Z,22.43
2023-04-17T14:48:04.941Z,22.20
2023-04-17T14:50:32.891Z,20.77
2023-04-17T14:53:03.496Z,21.67
2023-04-17T14:55:31.610Z,20.27
2023-04-17T14:57:59.397Z,20.73
2023-04-17T15:00:27.291Z,19.83
2023-04-17T15:02:55.266Z,21.97
2023-04-17T15:05:23.283Z,20.60
2023-04-17T15:07:51.176Z,19.27
2023-04-17T15:10:20.273Z,20.50
2023-04-17T15:12:48.069Z,19.40
2023-04-17T15:15:15.880Z,17.00
2023-04-17T15:17:43.754Z,17.47
2023-04-17T15:20:12.243Z,15.90
2023-04-17T15:22:40.052Z,13.53
2023-04-17T15:25:08.405Z,13.77
2023-04-17T15:27:37.518Z,13.47
2023-04-17T15:30:08.839Z,14.13
2023-04-17T15:32:36.714Z,16.93
2023-04-17T15:35:05.126Z,16.73
2023-04-17T15:37:32.940Z,16.73
2023-04-17T15:40:00.706Z,16.20
2023-04-17T15:42:28.733Z,15.90
2023-04-17T15:44:57.813Z,16.30
2023-04-17T15:47:25.713Z,14.93
2023-04-17T15:49:53.510Z,14.77
2023-04-17T15:52:21.266Z,12.80
2023-04-17T15:54:49.039Z,12.87
2023-04-17T15:57:16.834Z,12.30
2023-04-17T15:59:44.596Z,11.93
2023-04-17T16:02:14.413Z,13.27
2023-04-17T16:04:43.729Z,12.17
2023-04-17T16:07:13.194Z,13.33
2023-04-17T16:09:41.127Z,13.93
2023-04-17T16:12:10.507Z,13.10
2023-04-17T16:14:38.949Z,12.87
2023-04-17T16:17:07.070Z,14.00
2023-04-17T16:19:36.362Z,13.53
2023-04-17T16:22:04.861Z,14.40
2023-04-17T16:24:32.781Z,12.90
2023-04-17T16:27:02.919Z,13.67
2023-04-17T16:29:30.785Z,14.30
2023-04-17T16:31:59.701Z,14.87
2023-04-17T16:34:27.668Z,15.53
2023-04-17T16:36:56.952Z,16.33
2023-04-17T16:39:25.306Z,16.37
2023-04-17T16:41:53.349Z,15.43
2023-04-17T16:44:21.166Z,16.37
2023-04-17T16:49:19.652Z,15.77
2023-04-17T16:51:47.718Z,15.70
2023-04-17T16:54:18.730Z,17.33
2023-04-17T16:56:46.534Z,17.20
2023-04-17T16:59:14.553Z,17.87
2023-04-17T17:01:42.577Z,17.17
2023-04-17T17:04:10.372Z,17.60
2023-04-17T17:06:38.262Z,16.90
2023-04-17T17:09:06.702Z,18.50
2023-04-17T17:11:35.810Z,17.87
2023-04-17T17:14:03.586Z,18.70
2023-04-17T17:16:31.472Z,17.77
2023-04-17T17:19:00.217Z,18.97
2023-04-17T17:21:28.102Z,17.40
2023-04-17T17:23:56.012Z,17.50
2023-04-17T17:26:23.794Z,16.57
2023-04-17T17:28:53.499Z,17.27
2023-04-17T17:31:21.782Z,16.50
2023-04-17T17:33:50.266Z,17.60
2023-04-17T17:36:18.708Z,17.93
2023-04-17T17:38:46.893Z,18.33
2023-04-17T17:41:14.740Z,20.00
2023-04-17T17:43:43.060Z,18.13
2023-04-17T17:46:12.428Z,18.77
2023-04-17T17:48:40.271Z,18.23
2023-04-17T17:51:08.192Z,18.57
2023-04-17T17:53:36.005Z,17.80
2023-04-17T17:56:03.813Z,18.07
2023-04-17T17:58:31.553Z,17.50
2023-04-17T18:00:59.419Z,19.20
2023-04-17T18:03:28.770Z,18.57
2023-04-17T18:05:56.857Z,20.23
2023-04-17T18:08:24.673Z,20.03
2023-04-17T18:10:52.425Z,20.27
2023-04-17T18:13:20.665Z,21.37
2023-04-17T18:15:48.655Z,22.23
2023-04-17T18:18:16.497Z,23.10
2023-04-17T18:20:45.693Z,23.47
2023-04-17T18:23:13.778Z,24.47
2023-04-17T18:25:41.585Z,24.53
2023-04-17T18:28:09.470Z,25.33
2023-04-17T18:30:37.498Z,27.00
2023-04-17T18:33:05.426Z,25.10
2023-04-17T18:35:33.277Z,25.80
2023-04-17T18:38:02.527Z,25.63
2023-04-17T18:40:30.678Z,26.63
2023-04-17T18:42:58.550Z,26.67
2023-04-17T18:45:26.407Z,26.40
2023-04-17T18:47:54.460Z,26.53
2023-04-17T18:50:22.465Z,25.23
2023-04-17T18:52:51.258Z,27.33
2023-04-17T18:55:20.616Z,26.63
2023-04-17T18:57:48.678Z,26.93
2023-04-17T19:00:17.040Z,24.33
2023-04-17T19:02:44.869Z,25.33
2023-04-17T19:05:12.942Z,24.13
2023-04-17T19:07:40.902Z,24.80
2023-04-17T19:10:09.772Z,24.23
2023-04-17T19:12:39.302Z,24.40
2023-04-17T19:15:08.572Z,25.07
2023-04-17T19:17:36.501Z,25.13
2023-04-17T19:20:05.036Z,23.90
2023-04-17T19:22:32.865Z,25.53
2023-04-17T19:25:00.666Z,26.17
2023-04-17T19:27:28.689Z,25.73
2023-04-17T19:29:58.006Z,25.77
2023-04-17T19:32:25.885Z,26.10
2023-04-17T19:34:53.639Z,26.00
2023-04-17T19:37:21.420Z,27.13
2023-04-17T19:39:49.300Z,27.30
2023-04-17T19:42:17.033Z,24.80
2023-04-17T19:44:44.758Z,26.30
2023-04-17T19:47:13.844Z,26.60
2023-04-17T19:49:41.550Z,25.03
2023-04-17T19:52:09.477Z,25.63
2023-04-17T19:54:37.246Z,25.90
2023-04-17T19:57:05.127Z,24.37
2023-04-17T19:59:32.981Z,25.53
2023-04-17T20:02:00.822Z,26.27
2023-04-17T20:04:30.046Z,28.80
2023-04-17T20:06:58.474Z,26.87
2023-04-17T20:09:26.196Z,26.97
2023-04-17T20:11:53.997Z,26.53
2023-04-17T20:14:21.740Z,26.80
2023-04-17T20:16:50.154Z,27.03
2023-04-17T20:19:18.096Z,26.40
2023-04-17T20:21:47.810Z,26.00
2023-04-17T20:24:16.495Z,25.30
2023-04-17T20:26:45.337Z,25.97
2023-04-17T20:29:13.540Z,25.03
2023-04-17T20:31:41.640Z,25.37
2023-04-17T20:34:09.484Z,23.60
2023-04-17T20:36:37.267Z,24.73
2023-04-17T20:39:07.094Z,23.23
2023-04-17T20:41:34.886Z,24.30
2023-04-17T20:44:02.949Z,23.70
2023-04-17T20:46:30.948Z,24.03
2023-04-17T20:48:58.944Z,23.27
2023-04-17T20:51:27.369Z,21.90
2023-04-17T20:53:55.790Z,23.30
2023-04-17T20:56:24.920Z,23.03
2023-04-17T20:58:52.697Z,22.80
2023-04-17T21:01:21.056Z,21.77
2023-04-17T21:03:49.099Z,21.63
2023-04-17T21:06:17.845Z,21.63
2023-04-17T21:08:45.640Z,21.00
2023-04-17T21:11:13.382Z,22.00
2023-04-17T21:13:42.435Z,20.70
2023-04-17T21:16:12.064Z,20.27
2023-04-17T21:18:39.965Z,20.63
2023-04-17T21:21:07.766Z,19.30
2023-04-17T21:23:35.663Z,20.20
2023-04-17T21:26:03.781Z,21.00
2023-04-17T21:28:31.598Z,21.13
2023-04-17T21:31:00.647Z,20.90
2023-04-17T21:33:28.424Z,19.73
2023-04-17T21:35:56.192Z,20.10
2023-04-17T21:38:23.919Z,20.47
2023-04-17T21:40:51.793Z,19.97
2023-04-17T21:43:19.689Z,19.20
2023-04-17T21:45:47.577Z,19.97
2023-04-17T21:48:16.876Z,19.47
2023-04-17T21:50:44.623Z,19.13
2023-04-17T21:53:12.350Z,18.70
2023-04-17T21:55:40.095Z,19.33
2023-04-17T21:58:08.446Z,18.23
2023-04-17T22:00:36.231Z,18.73
2023-04-17T22:03:04.098Z,17.67
2023-04-17T22:05:33.203Z,17.07
2023-04-17T22:08:01.361Z,18.07
2023-04-17T22:10:30.038Z,18.33
2023-04-17T22:12:57.849Z,17.77
2023-04-17T22:15:25.565Z,18.90
2023-04-17T22:17:53.505Z,18.53
2023-04-17T22:20:21.431Z,17.97
2023-04-17T22:22:50.507Z,18.33
2023-04-17T22:25:18.399Z,18.60
2023-04-17T22:27:46.142Z,17.50
2023-04-17T22:30:14.004Z,18.03
2023-04-17T22:32:41.906Z,16.97
2023-04-17T22:35:10.225Z,17.30
2023-04-17T22:37:37.953Z,17.27
2023-04-17T22:40:08.588Z,18.27
2023-04-17T22:42:36.351Z,17.13
2023-04-17T22:45:04.297Z,17.63
2023-04-17T22:47:32.111Z,17.83
2023-04-17T22:49:59.857Z,16.60
2023-04-17T22:52:27.578Z,17.00
2023-04-17T22:54:55.679Z,17.13
2023-04-17T22:57:24.897Z,16.70
2023-04-17T22:59:52.654Z,17.83
2023-04-17T23:02:20.409Z,17.87
2023-04-17T23:04:48.211Z,16.10
2023-04-17T23:07:15.962Z,15.73
2023-04-17T23:09:44.750Z,16.10
2023-04-17T23:12:12.515Z,16.47
2023-04-17T23:14:41.585Z,16.87
2023-04-17T23:17:09.365Z,15.47
2023-04-17T23:19:37.126Z,15.37
2023-04-17T23:22:05.063Z,15.73
2023-04-17T23:24:34.228Z,15.73
2023-04-17T23:27:02.514Z,14.80
2023-04-17T23:29:30.306Z,15.70
2023-04-17T23:31:59.462Z,15.37
2023-04-17T23:34:27.815Z,16.50
2023-04-17T23:36:55.558Z,15.03
2023-04-17T23:39:23.317Z,15.97
2023-04-17T23:41:51.066Z,15.80
2023-04-17T23:44:18.818Z,15.77
2023-04-17T23:46:46.602Z,15.80
2023-04-17T23:49:15.656Z,15.03
2023-04-17T23:51:43.371Z,15.87
2023-04-17T23:54:11.545Z,15.93
2023-04-17T23:56:39.453Z,15.33
2023-04-17T23:59:07.187Z,15.47
